Time;durP1;ratioP1;P1;durP2;ratioP2;P2;SDS_P1;SDS_P2;PMS_P1;PMS_P2;Temp;Humidity;BMP_temperature;BMP_pressure;BME280_temperature;BME280_humidity;BME280_pressure;Samples;Min_cycle;Max_cycle;Signal;HPM_P1;HPM_P2
2021/06/16 00:01:27;;;;;;;1.73;1.00;;;;;;;;;;5063704;28;20082;-76
2021/06/16 00:04:11;;;;;;;1.45;1.00;;;;;;;;;;5056649;28;20035;-76
2021/06/16 00:06:56;;;;;;;1.80;1.10;;;;;;;;;;5075004;28;20040;-76
2021/06/16 00:09:41;;;;;;;2.42;1.17;;;;;;;;;;5064944;28;20059;-76
2021/06/16 00:12:26;;;;;;;1.70;0.95;;;;;;;;;;5068749;28;20042;-76
2021/06/16 00:15:12;;;;;;;1.60;1.10;;;;;;;;;;5069674;28;20123;-75
2021/06/16 00:17:57;;;;;;;1.90;1.17;;;;;;;;;;5050899;28;20082;-76
2021/06/16 00:20:41;;;;;;;2.00;1.15;;;;;;;;;;5062271;28;20055;-77
2021/06/16 00:23:26;;;;;;;1.67;1.02;;;;;;;;;;5068645;28;20499;-76
2021/06/16 00:26:10;;;;;;;1.90;1.10;;;;;;;;;;5075645;28;20043;-77
2021/06/16 00:28:55;;;;;;;1.50;1.08;;;;;;;;;;5081773;28;20039;-77
2021/06/16 00:31:39;;;;;;;2.05;1.10;;;;;;;;;;5076054;28;20144;-77
2021/06/16 00:34:24;;;;;;;1.50;1.05;;;;;;;;;;5072351;28;20077;-77
2021/06/16 00:37:09;;;;;;;2.05;1.10;;;;;;;;;;5067650;28;20093;-77
2021/06/16 00:39:54;;;;;;;1.70;1.17;;;;;;;;;;5057747;28;20063;-77
2021/06/16 00:42:38;;;;;;;1.52;1.10;;;;;;;;;;5079733;28;20424;-76
2021/06/16 00:45:23;;;;;;;1.88;1.20;;;;;;;;;;5082229;28;20129;-77
2021/06/16 00:48:07;;;;;;;1.65;1.20;;;;;;;;;;5072445;28;20487;-76
2021/06/16 00:50:52;;;;;;;1.80;1.20;;;;;;;;;;5080769;28;20419;-76
2021/06/16 00:53:36;;;;;;;1.80;1.20;;;;;;;;;;5092381;27;20046;-76
2021/06/16 00:56:21;;;;;;;1.42;1.00;;;;;;;;;;5075494;28;20061;-76
2021/06/16 00:59:06;;;;;;;2.30;1.33;;;;;;;;;;5064176;28;20050;-76
2021/06/16 01:01:51;;;;;;;2.15;1.30;;;;;;;;;;5059791;28;20813;-76
2021/06/16 01:04:36;;;;;;;1.98;1.10;;;;;;;;;;5078311;28;20113;-76
2021/06/16 01:07:20;;;;;;;2.80;1.40;;;;;;;;;;5053365;28;20645;-76
2021/06/16 01:10:05;;;;;;;2.42;1.40;;;;;;;;;;5059421;28;20113;-76
2021/06/16 01:12:53;;;;;;;1.73;1.23;;;;;;;;;;5072120;28;20497;-76
2021/06/16 01:15:40;;;;;;;1.90;1.13;;;;;;;;;;5063878;28;20097;-76
2021/06/16 01:18:25;;;;;;;1.85;1.20;;;;;;;;;;5061189;28;20051;-76
2021/06/16 01:21:10;;;;;;;1.67;1.10;;;;;;;;;;5049004;28;20129;-76
2021/06/16 01:23:55;;;;;;;2.50;1.40;;;;;;;;;;5075125;28;20043;-76
2021/06/16 01:26:40;;;;;;;1.42;1.00;;;;;;;;;;5073592;28;20067;-76
2021/06/16 01:29:28;;;;;;;2.25;1.20;;;;;;;;;;5065410;28;20071;-76
2021/06/16 01:32:12;;;;;;;2.78;1.20;;;;;;;;;;5069170;28;20101;-75
2021/06/16 01:34:57;;;;;;;1.60;1.20;;;;;;;;;;5059727;28;20075;-76
2021/06/16 01:37:42;;;;;;;1.60;1.15;;;;;;;;;;5062138;28;20038;-76
2021/06/16 01:40:26;;;;;;;1.55;1.17;;;;;;;;;;5063997;28;20047;-76
2021/06/16 01:43:11;;;;;;;1.70;1.20;;;;;;;;;;5057820;28;20058;-76
2021/06/16 01:45:58;;;;;;;1.60;1.10;;;;;;;;;;5052423;28;20039;-75
2021/06/16 01:48:43;;;;;;;2.85;1.20;;;;;;;;;;5069575;28;20039;-76
2021/06/16 01:51:27;;;;;;;1.65;1.25;;;;;;;;;;5078219;28;20081;-75
2021/06/16 01:54:12;;;;;;;1.85;1.27;;;;;;;;;;5057002;28;20111;-75
2021/06/16 01:56:56;;;;;;;1.85;1.17;;;;;;;;;;5073099;28;20039;-75
2021/06/16 01:59:41;;;;;;;2.05;1.40;;;;;;;;;;5082395;28;20065;-75
2021/06/16 02:02:26;;;;;;;2.03;1.10;;;;;;;;;;5074509;28;20039;-75
2021/06/16 02:05:11;;;;;;;1.92;1.40;;;;;;;;;;5069000;28;20584;-75
2021/06/16 02:07:56;;;;;;;2.17;1.20;;;;;;;;;;5069365;28;20093;-75
2021/06/16 02:10:42;;;;;;;2.60;1.40;;;;;;;;;;5050583;28;20059;-75
2021/06/16 02:13:36;;;;;;;2.28;1.40;;;;;;;;;;5071075;28;20063;-76
2021/06/16 02:16:40;;;;;;;2.20;1.27;;;;;;;;;;5067377;28;20092;-75
2021/06/16 02:19:29;;;;;;;2.08;1.33;;;;;;;;;;5071637;28;20045;-75
2021/06/16 02:22:13;;;;;;;2.90;1.25;;;;;;;;;;5064377;28;20035;-75
2021/06/16 02:24:58;;;;;;;1.38;1.10;;;;;;;;;;5039856;28;20043;-75
2021/06/16 02:27:43;;;;;;;2.15;1.33;;;;;;;;;;5082945;28;20039;-75
2021/06/16 02:30:28;;;;;;;1.60;1.10;;;;;;;;;;5063432;28;20047;-74
2021/06/16 02:33:13;;;;;;;1.70;1.17;;;;;;;;;;5077717;28;20141;-75
2021/06/16 02:35:58;;;;;;;1.30;1.00;;;;;;;;;;5053739;28;20507;-75
2021/06/16 02:38:43;;;;;;;1.52;1.00;;;;;;;;;;5086544;28;20121;-75
2021/06/16 02:41:28;;;;;;;1.77;1.00;;;;;;;;;;5072597;28;20282;-75
2021/06/16 02:44:12;;;;;;;1.48;0.98;;;;;;;;;;5068965;28;20623;-75
2021/06/16 02:46:57;;;;;;;1.45;0.98;;;;;;;;;;5063013;28;20039;-75
2021/06/16 02:49:43;;;;;;;1.45;1.00;;;;;;;;;;5066510;28;20135;-75
2021/06/16 02:52:28;;;;;;;1.38;1.00;;;;;;;;;;5092183;27;20114;-75
2021/06/16 02:55:12;;;;;;;1.52;1.00;;;;;;;;;;5071834;28;20507;-75
2021/06/16 02:57:57;;;;;;;1.33;0.98;;;;;;;;;;5082079;28;20518;-75
2021/06/16 03:00:41;;;;;;;1.60;1.00;;;;;;;;;;5060786;28;20052;-75
2021/06/16 03:03:26;;;;;;;1.15;0.90;;;;;;;;;;5061400;28;20420;-75
2021/06/16 03:06:11;;;;;;;1.38;1.00;;;;;;;;;;5090286;28;20708;-75
2021/06/16 03:08:55;;;;;;;1.40;1.00;;;;;;;;;;5061883;28;20043;-75
2021/06/16 03:11:40;;;;;;;1.50;1.10;;;;;;;;;;5091475;28;20089;-75
2021/06/16 03:14:25;;;;;;;1.98;1.00;;;;;;;;;;5074627;28;20043;-76
2021/06/16 03:17:12;;;;;;;1.35;1.00;;;;;;;;;;5065227;28;20098;-76
2021/06/16 03:19:57;;;;;;;1.08;0.90;;;;;;;;;;5064068;28;20504;-75
2021/06/16 03:22:42;;;;;;;1.60;0.90;;;;;;;;;;5062582;28;20040;-75
2021/06/16 03:25:27;;;;;;;1.70;1.00;;;;;;;;;;5067799;28;20541;-75
2021/06/16 03:28:13;;;;;;;1.27;1.00;;;;;;;;;;5083935;28;20132;-75
2021/06/16 03:30:58;;;;;;;1.25;0.90;;;;;;;;;;5066477;28;20083;-76
2021/06/16 03:33:43;;;;;;;1.30;0.95;;;;;;;;;;5070207;28;20523;-75
2021/06/16 03:36:28;;;;;;;1.08;0.90;;;;;;;;;;5066716;28;20450;-75
2021/06/16 03:39:12;;;;;;;1.38;0.80;;;;;;;;;;5058215;28;20042;-75
2021/06/16 03:41:57;;;;;;;0.90;0.80;;;;;;;;;;5083346;28;20117;-75
2021/06/16 03:44:42;;;;;;;1.10;0.80;;;;;;;;;;5053917;28;20893;-75
2021/06/16 03:47:27;;;;;;;1.95;1.00;;;;;;;;;;5081455;28;20088;-76
2021/06/16 03:50:14;;;;;;;1.05;0.80;;;;;;;;;;5084960;28;20112;-75
2021/06/16 03:52:59;;;;;;;1.30;0.80;;;;;;;;;;5075564;28;20035;-75
2021/06/16 03:55:44;;;;;;;1.33;0.75;;;;;;;;;;5062915;28;20125;-75
2021/06/16 03:58:29;;;;;;;1.45;0.90;;;;;;;;;;5060971;28;20117;-75
2021/06/16 04:01:13;;;;;;;1.40;0.90;;;;;;;;;;5076596;28;20040;-75
2021/06/16 04:03:58;;;;;;;0.90;0.70;;;;;;;;;;5056493;28;20105;-75
2021/06/16 04:06:44;;;;;;;1.42;0.73;;;;;;;;;;5081963;28;20176;-76
2021/06/16 04:09:29;;;;;;;1.08;0.80;;;;;;;;;;5074316;28;20105;-76
2021/06/16 04:12:13;;;;;;;1.15;0.82;;;;;;;;;;5070270;28;20043;-76
2021/06/16 04:14:57;;;;;;;0.75;0.73;;;;;;;;;;5054228;28;20043;-76
2021/06/16 04:17:42;;;;;;;1.95;1.00;;;;;;;;;;5069530;28;20039;-77
2021/06/16 04:20:27;;;;;;;1.30;0.90;;;;;;;;;;5082550;28;20678;-76
2021/06/16 04:23:11;;;;;;;1.90;0.90;;;;;;;;;;5056139;28;20650;-76
2021/06/16 04:25:56;;;;;;;1.02;0.80;;;;;;;;;;5073908;28;20067;-76
2021/06/16 04:28:41;;;;;;;1.73;0.80;;;;;;;;;;5058024;28;20122;-76
2021/06/16 04:31:25;;;;;;;1.58;0.85;;;;;;;;;;5074837;28;20458;-76
2021/06/16 04:34:10;;;;;;;1.10;0.70;;;;;;;;;;5065942;28;20040;-76
2021/06/16 04:36:54;;;;;;;1.08;0.70;;;;;;;;;;5057024;28;20066;-76
2021/06/16 04:39:39;;;;;;;1.02;0.77;;;;;;;;;;5074325;28;20086;-76
2021/06/16 04:42:23;;;;;;;1.20;0.80;;;;;;;;;;5065842;28;20093;-77
2021/06/16 04:45:08;;;;;;;1.40;0.70;;;;;;;;;;5065726;28;20047;-77
2021/06/16 04:47:53;;;;;;;1.25;0.73;;;;;;;;;;5052093;28;20039;-76
2021/06/16 04:50:37;;;;;;;0.68;0.50;;;;;;;;;;5056697;28;20051;-76
2021/06/16 04:53:22;;;;;;;1.23;0.85;;;;;;;;;;5062659;28;20139;-77
2021/06/16 04:56:06;;;;;;;1.45;0.80;;;;;;;;;;5072119;28;20047;-76
2021/06/16 04:58:51;;;;;;;1.02;0.80;;;;;;;;;;5059999;28;20361;-77
2021/06/16 05:01:36;;;;;;;1.20;0.80;;;;;;;;;;5065953;28;20412;-76
2021/06/16 05:04:21;;;;;;;1.58;0.80;;;;;;;;;;5067055;28;20027;-76
2021/06/16 05:07:05;;;;;;;1.35;0.80;;;;;;;;;;5070931;28;20112;-76
2021/06/16 05:09:50;;;;;;;1.05;0.80;;;;;;;;;;5073424;28;20067;-76
2021/06/16 05:12:34;;;;;;;0.95;0.60;;;;;;;;;;5064997;28;20047;-77
2021/06/16 05:15:19;;;;;;;0.70;0.60;;;;;;;;;;5063112;28;20508;-75
2021/06/16 05:18:07;;;;;;;1.52;0.70;;;;;;;;;;5065775;28;20124;-76
2021/06/16 05:20:51;;;;;;;0.98;0.68;;;;;;;;;;5049803;28;20062;-75
2021/06/16 05:23:36;;;;;;;0.75;0.70;;;;;;;;;;5064031;28;20078;-75
2021/06/16 05:26:20;;;;;;;1.00;0.70;;;;;;;;;;5065583;28;20042;-76
2021/06/16 05:29:06;;;;;;;0.68;0.68;;;;;;;;;;5067145;28;20116;-75
2021/06/16 05:31:51;;;;;;;1.10;0.70;;;;;;;;;;5082740;28;20042;-75
2021/06/16 05:34:35;;;;;;;2.33;0.80;;;;;;;;;;5081545;28;20043;-76
2021/06/16 05:37:20;;;;;;;0.93;0.60;;;;;;;;;;5081025;28;20038;-76
2021/06/16 05:40:05;;;;;;;2.22;0.80;;;;;;;;;;5059096;28;20047;-76
2021/06/16 05:42:50;;;;;;;2.88;0.90;;;;;;;;;;5054520;28;20036;-76
2021/06/16 05:45:35;;;;;;;1.85;1.00;;;;;;;;;;5082497;28;20043;-76
2021/06/16 05:48:20;;;;;;;2.38;1.00;;;;;;;;;;5066871;28;20084;-76
2021/06/16 05:51:04;;;;;;;2.42;1.10;;;;;;;;;;5057209;28;20055;-75
2021/06/16 05:53:49;;;;;;;2.55;1.00;;;;;;;;;;5060182;28;20084;-76
2021/06/16 05:56:34;;;;;;;3.97;0.98;;;;;;;;;;5068985;28;20091;-76
2021/06/16 05:59:18;;;;;;;5.07;1.08;;;;;;;;;;5082384;28;20632;-76
2021/06/16 06:02:03;;;;;;;2.70;0.95;;;;;;;;;;5082617;28;20070;-76
2021/06/16 06:04:48;;;;;;;5.32;1.20;;;;;;;;;;5069432;28;20463;-77
2021/06/16 06:07:32;;;;;;;4.28;1.75;;;;;;;;;;5056732;28;20054;-76
2021/06/16 06:10:17;;;;;;;3.47;1.33;;;;;;;;;;5064001;28;20594;-76
2021/06/16 06:13:01;;;;;;;3.72;1.35;;;;;;;;;;5069654;28;20115;-76
2021/06/16 06:15:46;;;;;;;3.22;1.15;;;;;;;;;;5072917;28;20043;-76
2021/06/16 06:18:31;;;;;;;3.15;1.25;;;;;;;;;;5078007;28;20120;-77
2021/06/16 06:21:15;;;;;;;4.72;1.60;;;;;;;;;;5069588;28;20047;-76
2021/06/16 06:24:00;;;;;;;3.30;1.33;;;;;;;;;;5056176;28;20760;-77
2021/06/16 06:26:45;;;;;;;3.85;1.40;;;;;;;;;;5084664;28;20039;-77
2021/06/16 06:29:30;;;;;;;5.20;1.55;;;;;;;;;;5059291;28;20051;-76
2021/06/16 06:32:14;;;;;;;4.03;1.27;;;;;;;;;;5056863;28;20446;-76
2021/06/16 06:34:58;;;;;;;2.90;1.20;;;;;;;;;;5066283;28;20109;-77
2021/06/16 06:37:43;;;;;;;4.45;1.40;;;;;;;;;;5054313;28;20043;-76
2021/06/16 06:40:28;;;;;;;3.83;1.40;;;;;;;;;;5070986;28;20044;-77
2021/06/16 06:43:12;;;;;;;3.55;1.42;;;;;;;;;;5066478;28;20174;-77
2021/06/16 06:45:57;;;;;;;6.03;1.75;;;;;;;;;;5052488;28;20035;-77
2021/06/16 06:48:41;;;;;;;4.22;1.60;;;;;;;;;;5069117;28;20047;-77
2021/06/16 06:51:26;;;;;;;4.43;1.60;;;;;;;;;;5078060;28;20055;-77
2021/06/16 06:54:10;;;;;;;4.25;1.90;;;;;;;;;;5070794;28;20496;-77
2021/06/16 06:56:55;;;;;;;3.80;1.33;;;;;;;;;;5071283;28;20097;-77
2021/06/16 06:59:39;;;;;;;5.20;1.50;;;;;;;;;;5080964;28;20063;-76
2021/06/16 07:02:25;;;;;;;5.78;1.50;;;;;;;;;;5067394;28;20039;-77
2021/06/16 07:05:10;;;;;;;5.07;1.52;;;;;;;;;;5081442;28;20039;-77
2021/06/16 07:07:55;;;;;;;7.43;1.70;;;;;;;;;;5075502;28;20148;-78
2021/06/16 07:10:40;;;;;;;3.95;1.48;;;;;;;;;;5073943;28;20052;-78
2021/06/16 07:13:25;;;;;;;6.72;1.88;;;;;;;;;;5067679;28;20121;-78
2021/06/16 07:16:09;;;;;;;6.00;1.80;;;;;;;;;;5078656;28;20491;-77
2021/06/16 07:18:54;;;;;;;6.00;2.17;;;;;;;;;;5055804;28;20399;-77
2021/06/16 07:21:38;;;;;;;5.93;1.67;;;;;;;;;;5069899;28;20035;-77
2021/06/16 07:24:23;;;;;;;5.30;1.73;;;;;;;;;;5065050;28;20040;-78
2021/06/16 07:27:07;;;;;;;5.97;1.75;;;;;;;;;;5079323;28;20124;-78
2021/06/16 07:29:52;;;;;;;5.53;1.70;;;;;;;;;;5074761;28;20055;-75
2021/06/16 07:32:37;;;;;;;6.45;1.80;;;;;;;;;;5070734;28;20845;-75
2021/06/16 07:35:21;;;;;;;5.35;1.88;;;;;;;;;;5060715;28;20635;-75
2021/06/16 07:38:06;;;;;;;6.80;1.98;;;;;;;;;;5061877;28;20039;-75
2021/06/16 07:40:51;;;;;;;4.93;1.95;;;;;;;;;;5075228;28;20039;-75
2021/06/16 07:43:35;;;;;;;7.10;1.63;;;;;;;;;;5076399;28;20481;-76
2021/06/16 07:46:20;;;;;;;5.25;1.63;;;;;;;;;;5050163;28;20051;-75
2021/06/16 07:49:06;;;;;;;5.93;1.90;;;;;;;;;;5053126;28;20123;-75
2021/06/16 07:51:50;;;;;;;6.10;1.88;;;;;;;;;;5060206;28;20097;-76
2021/06/16 07:54:35;;;;;;;7.88;1.92;;;;;;;;;;5078053;28;20086;-76
2021/06/16 07:57:20;;;;;;;5.30;1.70;;;;;;;;;;5050044;28;20086;-76
2021/06/16 08:00:07;;;;;;;5.43;1.80;;;;;;;;;;5077641;28;20440;-77
2021/06/16 08:02:51;;;;;;;5.88;1.70;;;;;;;;;;5067662;28;20113;-76
2021/06/16 08:05:36;;;;;;;7.15;1.77;;;;;;;;;;5069555;28;20039;-76
2021/06/16 08:08:20;;;;;;;8.32;1.90;;;;;;;;;;5073468;28;20034;-76
2021/06/16 08:11:05;;;;;;;7.75;2.00;;;;;;;;;;5058420;28;20456;-76
2021/06/16 08:13:50;;;;;;;6.32;1.90;;;;;;;;;;5068560;28;20059;-77
2021/06/16 08:16:35;;;;;;;3.95;1.63;;;;;;;;;;5079592;28;20062;-76
2021/06/16 08:19:20;;;;;;;5.40;1.95;;;;;;;;;;5068054;28;20050;-77
2021/06/16 08:22:05;;;;;;;6.45;2.05;;;;;;;;;;5064051;28;20044;-77
2021/06/16 08:24:49;;;;;;;7.72;2.05;;;;;;;;;;5070875;28;20047;-77
2021/06/16 08:27:34;;;;;;;5.30;1.80;;;;;;;;;;5065451;28;20039;-76
2021/06/16 08:30:19;;;;;;;4.93;1.77;;;;;;;;;;5070139;28;20043;-77
2021/06/16 08:33:04;;;;;;;5.63;1.80;;;;;;;;;;5057948;28;20039;-77
2021/06/16 08:35:48;;;;;;;6.68;2.00;;;;;;;;;;5070588;28;20118;-77
2021/06/16 08:38:33;;;;;;;6.88;2.15;;;;;;;;;;5070171;28;20059;-76
2021/06/16 08:41:18;;;;;;;5.30;1.90;;;;;;;;;;5064412;28;20083;-77
2021/06/16 08:44:03;;;;;;;5.38;1.90;;;;;;;;;;5072366;28;20035;-77
2021/06/16 08:46:48;;;;;;;5.18;1.90;;;;;;;;;;5064821;28;20419;-78
2021/06/16 08:49:33;;;;;;;7.68;2.28;;;;;;;;;;5072875;28;20852;-77
2021/06/16 08:52:18;;;;;;;6.88;1.88;;;;;;;;;;5075879;28;20039;-78
2021/06/16 08:55:04;;;;;;;7.95;2.05;;;;;;;;;;5071509;28;20105;-78
2021/06/16 08:57:49;;;;;;;8.55;2.25;;;;;;;;;;5074236;28;20404;-78
2021/06/16 09:00:34;;;;;;;7.03;2.17;;;;;;;;;;5077650;28;20192;-78
2021/06/16 09:03:18;;;;;;;5.32;1.73;;;;;;;;;;5076318;28;20043;-78
2021/06/16 09:06:07;;;;;;;6.85;2.40;;;;;;;;;;5072295;28;20039;-77
2021/06/16 09:08:51;;;;;;;5.80;1.80;;;;;;;;;;5080501;28;20109;-77
2021/06/16 09:11:40;;;;;;;6.22;1.77;;;;;;;;;;5071614;28;20059;-77
2021/06/16 09:14:24;;;;;;;4.47;1.55;;;;;;;;;;5080763;28;20093;-76
2021/06/16 09:17:09;;;;;;;5.03;1.85;;;;;;;;;;5080872;28;20636;-77
2021/06/16 09:19:58;;;;;;;5.88;2.08;;;;;;;;;;5076126;28;20035;-77
2021/06/16 09:22:42;;;;;;;4.88;1.95;;;;;;;;;;5065375;28;20132;-77
2021/06/16 09:25:27;;;;;;;7.18;2.22;;;;;;;;;;5035363;28;20071;-77
2021/06/16 09:28:11;;;;;;;5.13;2.17;;;;;;;;;;5066360;28;20085;-77
2021/06/16 09:30:56;;;;;;;5.10;2.10;;;;;;;;;;5070030;28;20097;-77
2021/06/16 09:33:41;;;;;;;5.53;2.00;;;;;;;;;;5087842;28;20483;-77
2021/06/16 09:36:26;;;;;;;6.30;1.90;;;;;;;;;;5063998;28;20055;-77
2021/06/16 09:39:11;;;;;;;7.20;2.03;;;;;;;;;;5052844;28;20039;-77
2021/06/16 09:42:12;;;;;;;8.60;2.35;;;;;;;;;;5073477;28;20601;-77
2021/06/16 09:45:00;;;;;;;6.72;1.83;;;;;;;;;;5069109;28;20038;-77
2021/06/16 09:47:45;;;;;;;4.63;1.60;;;;;;;;;;5064607;28;20085;-77
2021/06/16 09:50:29;;;;;;;6.22;2.20;;;;;;;;;;5105393;27;20074;-77
2021/06/16 09:53:14;;;;;;;5.57;1.90;;;;;;;;;;5058956;28;20453;-77
2021/06/16 09:56:14;;;;;;;7.35;1.90;;;;;;;;;;5076493;28;20043;-77
2021/06/16 09:58:59;;;;;;;5.60;2.40;;;;;;;;;;5078592;28;20067;-77
2021/06/16 10:01:44;;;;;;;6.35;2.38;;;;;;;;;;5082211;28;20042;-77
2021/06/16 10:04:34;;;;;;;7.85;2.40;;;;;;;;;;5070343;28;20507;-78
2021/06/16 10:07:19;;;;;;;6.70;2.13;;;;;;;;;;5080277;28;20093;-77
2021/06/16 10:10:04;;;;;;;5.68;2.20;;;;;;;;;;5067182;28;20055;-77
2021/06/16 10:12:50;;;;;;;6.00;2.08;;;;;;;;;;5057321;28;20136;-77
2021/06/16 10:15:34;;;;;;;7.03;1.83;;;;;;;;;;5068364;28;20046;-77
2021/06/16 10:18:19;;;;;;;5.70;2.10;;;;;;;;;;5086343;27;20040;-77
2021/06/16 10:21:03;;;;;;;7.50;2.17;;;;;;;;;;5084198;28;20034;-77
2021/06/16 10:23:48;;;;;;;5.68;2.00;;;;;;;;;;5068139;28;20120;-77
2021/06/16 10:26:33;;;;;;;4.40;1.90;;;;;;;;;;5068508;28;20066;-76
2021/06/16 10:29:17;;;;;;;5.60;2.00;;;;;;;;;;5053522;28;20039;-77
2021/06/16 10:32:03;;;;;;;5.80;1.60;;;;;;;;;;5069894;28;20042;-77
2021/06/16 10:34:51;;;;;;;5.88;2.45;;;;;;;;;;5073377;28;20040;-78
2021/06/16 10:37:37;;;;;;;5.22;1.90;;;;;;;;;;5065458;28;20075;-78
2021/06/16 10:40:25;;;;;;;6.50;1.80;;;;;;;;;;5066722;28;20094;-77
2021/06/16 10:43:10;;;;;;;4.75;1.80;;;;;;;;;;5050919;28;20628;-77
2021/06/16 10:46:02;;;;;;;5.63;2.00;;;;;;;;;;5074044;28;20408;-78
2021/06/16 10:48:58;;;;;;;5.95;1.80;;;;;;;;;;5044707;28;20043;-77
2021/06/16 10:51:43;;;;;;;4.82;2.05;;;;;;;;;;5061433;28;20150;-76
2021/06/16 10:54:28;;;;;;;4.90;1.90;;;;;;;;;;5073470;28;20109;-78
2021/06/16 10:57:14;;;;;;;4.85;2.08;;;;;;;;;;5076993;28;20159;-77
2021/06/16 11:00:06;;;;;;;5.88;1.95;;;;;;;;;;5069375;28;20425;-78
2021/06/16 11:02:51;;;;;;;6.22;1.90;;;;;;;;;;5065151;28;20067;-78
2021/06/16 11:05:38;;;;;;;5.70;2.00;;;;;;;;;;5073643;28;20166;-78
2021/06/16 11:08:45;;;;;;;5.22;1.80;;;;;;;;;;5076037;28;20070;-77
2021/06/16 11:11:49;;;;;;;5.10;1.80;;;;;;;;;;5070425;28;20128;-77
2021/06/16 11:14:36;;;;;;;5.10;1.92;;;;;;;;;;5063957;28;20081;-78
2021/06/16 11:17:27;;;;;;;4.80;2.03;;;;;;;;;;5072662;28;20915;-78
2021/06/16 11:20:14;;;;;;;5.30;1.80;;;;;;;;;;5084702;28;20042;-78
2021/06/16 11:23:03;;;;;;;5.28;1.95;;;;;;;;;;5048284;28;20511;-78
2021/06/16 11:25:49;;;;;;;5.72;1.88;;;;;;;;;;5068266;28;20074;-78
2021/06/16 11:28:37;;;;;;;3.85;1.60;;;;;;;;;;5064646;28;20101;-73
2021/06/16 11:31:22;;;;;;;6.97;2.25;;;;;;;;;;5066450;28;20043;-74
2021/06/16 11:34:06;;;;;;;3.53;1.70;;;;;;;;;;5032928;28;20090;-75
2021/06/16 11:36:51;;;;;;;4.13;1.80;;;;;;;;;;5069643;28;20454;-75
2021/06/16 11:39:35;;;;;;;5.45;2.00;;;;;;;;;;5078144;28;20128;-74
2021/06/16 11:42:20;;;;;;;7.05;1.83;;;;;;;;;;5061946;28;20027;-74
2021/06/16 11:45:05;;;;;;;7.35;2.10;;;;;;;;;;5072372;28;20035;-76
2021/06/16 11:47:52;;;;;;;4.75;1.95;;;;;;;;;;5073450;28;20116;-76
2021/06/16 11:50:38;;;;;;;7.93;1.80;;;;;;;;;;5075153;28;20059;-73
2021/06/16 11:53:27;;;;;;;5.53;1.90;;;;;;;;;;5087348;28;20506;-73
2021/06/16 11:56:11;;;;;;;4.57;2.00;;;;;;;;;;5058243;28;20047;-73
2021/06/16 11:58:56;;;;;;;7.93;2.00;;;;;;;;;;5060761;28;20203;-74
2021/06/16 12:01:40;;;;;;;5.22;1.63;;;;;;;;;;5086564;28;20043;-75
2021/06/16 12:04:25;;;;;;;4.20;1.70;;;;;;;;;;5068704;28;20081;-72
2021/06/16 12:07:10;;;;;;;6.35;1.92;;;;;;;;;;5068482;28;20046;-74
2021/06/16 12:09:55;;;;;;;5.35;1.88;;;;;;;;;;5087752;28;20043;-73
2021/06/16 12:12:52;;;;;;;3.95;1.73;;;;;;;;;;5056507;28;20150;-73
2021/06/16 12:15:37;;;;;;;6.43;1.80;;;;;;;;;;5073876;28;20084;-73
2021/06/16 12:18:22;;;;;;;5.32;1.77;;;;;;;;;;5044949;28;20039;-73
2021/06/16 12:21:07;;;;;;;4.43;1.80;;;;;;;;;;5081692;28;20079;-72
2021/06/16 12:23:51;;;;;;;6.38;1.90;;;;;;;;;;5055206;28;20074;-72
2021/06/16 12:26:36;;;;;;;6.82;1.80;;;;;;;;;;5090829;28;20026;-72
2021/06/16 12:29:21;;;;;;;6.70;2.17;;;;;;;;;;5057368;28;20548;-73
2021/06/16 12:32:08;;;;;;;7.95;2.20;;;;;;;;;;5085879;28;20591;-72
2021/06/16 12:35:17;;;;;;;5.32;2.10;;;;;;;;;;5052425;28;20042;-72
2021/06/16 12:38:02;;;;;;;4.40;1.80;;;;;;;;;;5042618;28;20059;-72
2021/06/16 12:40:47;;;;;;;3.53;1.63;;;;;;;;;;5070967;28;20072;-75
2021/06/16 12:43:31;;;;;;;5.50;2.13;;;;;;;;;;5086910;27;20472;-72
2021/06/16 12:46:16;;;;;;;4.75;1.80;;;;;;;;;;5083197;28;20043;-72
2021/06/16 12:49:16;;;;;;;3.83;1.77;;;;;;;;;;5056953;28;20051;-73
2021/06/16 12:52:03;;;;;;;3.33;1.45;;;;;;;;;;5063178;28;20286;-73
2021/06/16 12:54:48;;;;;;;5.30;1.77;;;;;;;;;;5108135;27;20093;-72
2021/06/16 12:57:39;;;;;;;5.45;1.60;;;;;;;;;;5082182;28;20404;-72
2021/06/16 13:00:26;;;;;;;3.55;1.67;;;;;;;;;;5067843;28;20083;-73
2021/06/16 13:03:15;;;;;;;4.72;1.80;;;;;;;;;;5067473;28;20066;-72
2021/06/16 13:06:03;;;;;;;4.82;1.80;;;;;;;;;;5048188;28;20058;-74
2021/06/16 13:08:50;;;;;;;5.88;1.90;;;;;;;;;;5069098;28;20046;-75
2021/06/16 13:11:36;;;;;;;5.78;1.90;;;;;;;;;;5076217;28;20408;-74
2021/06/16 13:14:27;;;;;;;4.43;1.50;;;;;;;;;;5067234;28;20035;-73
2021/06/16 13:17:12;;;;;;;5.82;1.52;;;;;;;;;;5064920;28;20243;-74
2021/06/16 13:20:00;;;;;;;4.25;1.65;;;;;;;;;;5062907;28;20094;-74
2021/06/16 13:22:45;;;;;;;5.60;1.83;;;;;;;;;;5080002;28;20043;-73
2021/06/16 13:25:30;;;;;;;7.82;1.65;;;;;;;;;;5077557;28;20039;-74
2021/06/16 13:28:34;;;;;;;4.25;1.70;;;;;;;;;;5074033;28;20039;-73
2021/06/16 13:31:20;;;;;;;4.32;1.60;;;;;;;;;;5091123;28;20051;-73
2021/06/16 13:34:11;;;;;;;5.95;1.95;;;;;;;;;;5076492;28;20094;-73
2021/06/16 13:36:56;;;;;;;2.75;1.75;;;;;;;;;;5094119;28;20042;-73
2021/06/16 13:39:40;;;;;;;4.88;1.88;;;;;;;;;;5068685;28;20055;-73
2021/06/16 13:42:25;;;;;;;4.35;2.00;;;;;;;;;;5056757;28;20297;-73
2021/06/16 13:45:10;;;;;;;5.28;2.00;;;;;;;;;;5061580;28;20109;-72
2021/06/16 13:47:55;;;;;;;4.63;1.80;;;;;;;;;;5090609;28;20039;-72
2021/06/16 13:50:40;;;;;;;5.05;1.98;;;;;;;;;;5081204;28;20412;-72
2021/06/16 13:53:24;;;;;;;5.82;1.65;;;;;;;;;;5071220;28;20074;-72
2021/06/16 13:56:10;;;;;;;5.32;1.73;;;;;;;;;;5068335;28;20042;-72
2021/06/16 13:58:55;;;;;;;5.82;1.83;;;;;;;;;;5079122;28;20075;-72
2021/06/16 14:01:40;;;;;;;6.20;2.03;;;;;;;;;;5077812;28;20047;-72
2021/06/16 14:04:25;;;;;;;4.38;2.35;;;;;;;;;;5078641;28;20043;-72
2021/06/16 14:07:10;;;;;;;4.15;1.70;;;;;;;;;;5083501;28;20046;-72
2021/06/16 14:09:55;;;;;;;4.00;1.80;;;;;;;;;;5042124;28;20080;-72
2021/06/16 14:12:40;;;;;;;5.55;1.80;;;;;;;;;;5070434;28;20112;-74
2021/06/16 14:15:24;;;;;;;5.25;1.85;;;;;;;;;;5058830;28;20040;-72
2021/06/16 14:18:09;;;;;;;5.20;1.90;;;;;;;;;;5078097;28;20499;-72
2021/06/16 14:20:55;;;;;;;3.83;1.48;;;;;;;;;;5081988;28;20079;-72
2021/06/16 14:23:40;;;;;;;6.30;1.77;;;;;;;;;;5040735;28;20053;-73
2021/06/16 14:26:25;;;;;;;3.65;1.73;;;;;;;;;;5069963;28;20085;-72
2021/06/16 14:29:09;;;;;;;5.32;2.00;;;;;;;;;;5062025;28;20039;-72
2021/06/16 14:31:54;;;;;;;4.57;1.90;;;;;;;;;;5086151;28;20078;-72
2021/06/16 14:34:38;;;;;;;6.95;2.20;;;;;;;;;;5084497;28;20396;-72
2021/06/16 14:37:23;;;;;;;3.33;1.80;;;;;;;;;;5071468;28;20104;-72
2021/06/16 14:40:08;;;;;;;3.35;1.70;;;;;;;;;;5065487;28;20419;-71
2021/06/16 14:42:52;;;;;;;6.05;1.92;;;;;;;;;;5085574;28;20115;-72
2021/06/16 14:45:37;;;;;;;5.50;1.90;;;;;;;;;;5084256;28;20043;-75
2021/06/16 14:48:22;;;;;;;4.55;1.73;;;;;;;;;;5081845;28;20453;-72
2021/06/16 14:51:06;;;;;;;3.25;1.60;;;;;;;;;;5058299;28;20055;-72
2021/06/16 14:53:51;;;;;;;4.72;1.75;;;;;;;;;;5062948;28;20167;-72
2021/06/16 14:56:35;;;;;;;4.20;1.73;;;;;;;;;;5073208;28;20035;-72
2021/06/16 14:59:20;;;;;;;4.72;1.63;;;;;;;;;;5079244;28;20123;-72
2021/06/16 15:02:05;;;;;;;2.95;1.55;;;;;;;;;;5076793;28;20118;-72
2021/06/16 15:04:50;;;;;;;3.67;1.70;;;;;;;;;;5070927;28;20044;-72
2021/06/16 15:07:36;;;;;;;5.03;1.58;;;;;;;;;;5075843;28;20100;-72
2021/06/16 15:10:20;;;;;;;4.30;1.83;;;;;;;;;;5066056;28;20044;-72
2021/06/16 15:13:05;;;;;;;4.68;1.60;;;;;;;;;;5073984;28;20090;-72
2021/06/16 15:15:49;;;;;;;3.83;1.63;;;;;;;;;;5074653;28;20175;-73
2021/06/16 15:18:34;;;;;;;3.47;1.63;;;;;;;;;;5046028;28;20072;-72
2021/06/16 15:21:19;;;;;;;3.90;1.80;;;;;;;;;;5058795;28;20044;-72
2021/06/16 15:24:04;;;;;;;4.63;1.42;;;;;;;;;;5075400;28;20036;-73
2021/06/16 15:26:49;;;;;;;3.00;1.48;;;;;;;;;;5071055;28;20122;-72
2021/06/16 15:29:34;;;;;;;2.97;1.58;;;;;;;;;;5058567;28;20751;-73
2021/06/16 15:32:19;;;;;;;3.42;1.70;;;;;;;;;;5090311;28;20450;-72
2021/06/16 15:35:04;;;;;;;5.35;1.92;;;;;;;;;;5057674;28;20526;-73
2021/06/16 15:37:49;;;;;;;4.35;1.75;;;;;;;;;;5056436;28;20094;-73
2021/06/16 15:40:34;;;;;;;4.05;1.63;;;;;;;;;;5048559;28;20036;-72
2021/06/16 15:43:19;;;;;;;4.93;1.55;;;;;;;;;;5097175;27;20287;-75
2021/06/16 15:46:04;;;;;;;5.25;1.77;;;;;;;;;;5051822;28;20169;-75
2021/06/16 15:48:49;;;;;;;3.92;1.50;;;;;;;;;;5077879;28;20048;-72
2021/06/16 15:51:33;;;;;;;3.00;1.30;;;;;;;;;;5067186;28;20131;-73
2021/06/16 15:54:18;;;;;;;3.35;1.50;;;;;;;;;;5064764;28;20097;-73
2021/06/16 15:57:02;;;;;;;4.75;1.52;;;;;;;;;;5084384;28;20047;-73
2021/06/16 15:59:47;;;;;;;3.47;1.50;;;;;;;;;;5070983;28;20494;-73
2021/06/16 16:02:32;;;;;;;4.00;1.90;;;;;;;;;;5071273;28;20134;-72
2021/06/16 16:05:17;;;;;;;3.42;1.60;;;;;;;;;;5093358;27;20075;-72
2021/06/16 16:08:03;;;;;;;2.92;1.50;;;;;;;;;;5069711;28;20096;-72
2021/06/16 16:10:47;;;;;;;3.80;1.42;;;;;;;;;;5067049;28;20051;-73
2021/06/16 16:13:32;;;;;;;4.28;1.35;;;;;;;;;;5076735;28;20067;-73
2021/06/16 16:16:17;;;;;;;4.53;1.58;;;;;;;;;;5064258;28;20151;-72
2021/06/16 16:19:01;;;;;;;2.75;1.30;;;;;;;;;;5067361;28;20043;-72
2021/06/16 16:21:46;;;;;;;2.47;1.48;;;;;;;;;;5090425;27;20049;-71
2021/06/16 16:24:31;;;;;;;4.68;1.60;;;;;;;;;;5095485;27;20039;-74
2021/06/16 16:27:15;;;;;;;3.17;1.45;;;;;;;;;;5070411;28;20035;-72
2021/06/16 16:30:00;;;;;;;3.85;1.75;;;;;;;;;;5062719;28;20030;-71
2021/06/16 16:32:45;;;;;;;3.50;1.50;;;;;;;;;;5059636;28;20047;-72